Accueil
METAR-TAF:

METAR-TAF

Aéroports :

Gloucester, Angleterre

Aéroport de Gloucestershire

latitude: 51-54N, longitude: 002-10W, altitude: 29 m

Observation

Le bulletin a été fait il y a 4 heures et 18 minutes, à 18:20 UTC
Vent 7 kt de nord-ouest
Température 10°C
Humidité 76%
Pression 1017 hPa
Visibilité 10 km ou plus
Nuages épars à une hauteur de 4200 ft

METAR: EGBJ 271820Z 32007KT 9999 SCT042 10/06 Q1017

Heure: 23:38 (22:38 UTC)

Prévision

Le bulletin a été fait il y a 8 heures et 39 minutes, à 13:59 UTC
Prévision valable du 27 à 15 UTC au 27 à 19 UTC
Vent 6 kt de ouest/nord-ouest
Visibilité 10 km ou plus
Nuages épars à une hauteur de 4500 ft
Probabilité 30% :
Temporairement
du 27 à 15 UTC au 27 à 19 UTC
Visibilité: 8000 m
averses de pluie

TAF: EGBJ 271359Z 2715/2719 29006KT 9999 SCT045 PROB30 TEMPO 2715/2719 8000 SHRA

Observations et prévisions météorologiques de plus de 4000 aéroports (messages METAR et TAF).

Les stations disponibles sont représentées par des disques jaunes et rouges sur la carte.

Passer la souris dessus pour voir le nom de la station.

Cliquer dessus pour voir les observations et prévisions météorologiques.

Pour changer de carte: cliquez sur les boutons verts avec une croix noire pour zoomer, sur le bouton vert avec un tiret pour effectuer un zoom arrière, ou sur les flèches vertes pour les cartes adjacentes.


METAR-TAF: